createdAt,value
2018-08-25T00:01:07.608Z,16.41
2018-08-25T00:03:36.486Z,16.31
2018-08-25T00:06:05.741Z,16.03
2018-08-25T00:08:34.641Z,16.10
2018-08-25T00:11:04.273Z,16.24
2018-08-25T00:13:33.257Z,16.13
2018-08-25T00:16:02.243Z,16.32
2018-08-25T00:18:31.229Z,16.25
2018-08-25T00:21:00.254Z,16.08
2018-08-25T00:23:29.150Z,16.35
2018-08-25T00:25:58.141Z,16.18
2018-08-25T00:28:27.092Z,16.10
2018-08-25T00:31:01.352Z,16.28
2018-08-25T00:33:30.232Z,16.21
2018-08-25T00:35:59.205Z,16.28
2018-08-25T00:38:28.156Z,16.09
2018-08-25T00:40:57.048Z,16.17
2018-08-25T00:43:25.917Z,16.14
2018-08-25T00:45:54.880Z,16.15
2018-08-25T00:48:23.853Z,16.19
2018-08-25T00:50:52.753Z,16.23
2018-08-25T00:53:21.725Z,16.32
2018-08-25T00:55:50.606Z,16.17
2018-08-25T00:58:19.693Z,16.16
2018-08-25T01:00:48.641Z,16.16
2018-08-25T01:03:17.535Z,15.97
2018-08-25T01:05:46.434Z,16.07
2018-08-25T01:08:15.380Z,16.05
2018-08-25T01:10:44.266Z,15.92
2018-08-25T01:13:13.177Z,15.98
2018-08-25T01:15:42.259Z,16.20
2018-08-25T01:18:11.097Z,15.58
2018-08-25T01:20:40.059Z,15.75
2018-08-25T01:23:09.022Z,15.41
2018-08-25T01:25:37.888Z,15.15
2018-08-25T01:28:06.806Z,15.62
2018-08-25T01:30:35.806Z,15.57
2018-08-25T01:33:04.920Z,15.14
2018-08-25T01:35:33.845Z,15.65
2018-08-25T01:38:02.815Z,15.61
2018-08-25T01:40:31.684Z,15.55
2018-08-25T01:43:00.589Z,14.89
2018-08-25T01:45:29.570Z,15.07
2018-08-25T01:47:58.462Z,15.20
2018-08-25T01:50:27.361Z,15.05
2018-08-25T01:52:56.375Z,14.77
2018-08-25T01:55:25.257Z,14.81
2018-08-25T01:57:54.124Z,15.02
2018-08-25T02:00:23.113Z,14.95
2018-08-25T02:02:52.112Z,14.67
2018-08-25T02:05:20.972Z,14.70
2018-08-25T02:07:49.940Z,14.78
2018-08-25T02:10:18.816Z,14.95
2018-08-25T02:12:47.700Z,14.88
2018-08-25T02:15:16.705Z,15.06
2018-08-25T02:17:45.604Z,15.08
2018-08-25T02:20:14.479Z,15.07
2018-08-25T02:22:43.416Z,15.19
2018-08-25T02:25:12.325Z,14.88
2018-08-25T02:27:41.216Z,14.79
2018-08-25T02:30:10.161Z,14.50
2018-08-25T02:32:39.029Z,14.41
2018-08-25T02:35:07.952Z,14.50
2018-08-25T02:37:37.098Z,14.56
2018-08-25T02:40:06.065Z,14.66
2018-08-25T02:42:35.455Z,14.84
2018-08-25T02:45:04.868Z,14.92
2018-08-25T02:47:34.473Z,14.97
2018-08-25T02:50:03.377Z,14.72
2018-08-25T02:52:32.564Z,14.78
2018-08-25T02:55:01.454Z,14.76
2018-08-25T02:57:30.363Z,14.71
2018-08-25T02:59:59.347Z,14.84
2018-08-25T03:02:28.243Z,14.79
2018-08-25T03:04:57.158Z,15.01
2018-08-25T03:07:26.309Z,14.77
2018-08-25T03:09:55.256Z,14.69
2018-08-25T03:12:24.131Z,14.69
2018-08-25T03:14:53.040Z,14.58
2018-08-25T03:17:22.039Z,14.39
2018-08-25T03:19:50.931Z,14.57
2018-08-25T03:22:19.891Z,14.42
2018-08-25T03:24:48.772Z,14.34
2018-08-25T03:27:17.671Z,14.49
2018-08-25T03:29:46.585Z,14.50
2018-08-25T03:32:15.430Z,14.61
2018-08-25T03:34:44.357Z,14.25
2018-08-25T03:37:13.333Z,14.01
2018-08-25T03:39:42.228Z,14.32
2018-08-25T03:42:11.114Z,14.55
2018-08-25T03:44:40.845Z,14.35
2018-08-25T03:47:09.743Z,14.45
2018-08-25T03:49:38.669Z,14.02
2018-08-25T03:52:07.575Z,14.20
2018-08-25T03:54:36.455Z,14.50
2018-08-25T03:57:05.436Z,14.38
2018-08-25T03:59:34.346Z,14.25
2018-08-25T04:02:03.220Z,14.54
2018-08-25T04:04:32.192Z,14.40
2018-08-25T04:07:01.099Z,14.64
2018-08-25T04:09:29.977Z,14.28
2018-08-25T04:11:58.929Z,14.36
2018-08-25T04:14:27.816Z,13.86
2018-08-25T04:16:56.756Z,14.13
2018-08-25T04:19:25.809Z,14.02
2018-08-25T04:21:54.978Z,14.30
2018-08-25T04:24:23.871Z,14.44
2018-08-25T04:26:52.835Z,14.32
2018-08-25T04:29:21.747Z,14.28
2018-08-25T04:31:50.608Z,14.26
2018-08-25T04:34:19.592Z,14.36
2018-08-25T04:36:48.458Z,14.44
2018-08-25T04:39:17.331Z,14.20
2018-08-25T04:41:46.299Z,14.18
2018-08-25T04:44:15.156Z,14.34
2018-08-25T04:46:44.084Z,14.63
2018-08-25T04:49:13.040Z,14.35
2018-08-25T04:51:41.926Z,14.42
2018-08-25T04:54:10.802Z,14.47
2018-08-25T04:56:39.756Z,14.65
2018-08-25T04:59:08.614Z,14.34
2018-08-25T05:01:37.512Z,14.53
2018-08-25T05:04:06.676Z,14.60
2018-08-25T05:06:35.669Z,14.81
2018-08-25T05:09:06.764Z,14.51
2018-08-25T05:11:35.715Z,14.58
2018-08-25T05:14:04.576Z,14.48
2018-08-25T05:16:33.475Z,14.55
2018-08-25T05:19:02.481Z,14.68
2018-08-25T05:21:31.498Z,14.57
2018-08-25T05:24:00.366Z,14.63
2018-08-25T05:26:29.325Z,14.64
2018-08-25T05:28:58.215Z,14.63
2018-08-25T05:31:27.141Z,14.60
2018-08-25T05:33:56.126Z,14.73
2018-08-25T05:36:25.034Z,14.66
2018-08-25T05:38:53.925Z,14.80
2018-08-25T05:41:22.915Z,14.58
2018-08-25T05:43:52.441Z,14.78
2018-08-25T05:46:21.364Z,14.97
2018-08-25T05:48:50.338Z,14.71
2018-08-25T05:51:19.217Z,14.87
2018-08-25T05:53:48.132Z,14.93
2018-08-25T05:56:17.100Z,14.90
2018-08-25T05:58:46.022Z,14.81
2018-08-25T06:01:14.891Z,14.86
2018-08-25T06:03:43.860Z,14.95
2018-08-25T06:06:12.741Z,15.04
2018-08-25T06:08:41.622Z,15.09
2018-08-25T06:11:10.581Z,15.02
2018-08-25T06:13:39.529Z,15.04
2018-08-25T06:16:08.366Z,15.05
2018-08-25T06:18:37.328Z,15.16
2018-08-25T06:21:06.266Z,15.34
2018-08-25T06:23:35.337Z,15.47
2018-08-25T06:26:04.315Z,15.35
2018-08-25T06:28:33.178Z,15.46
2018-08-25T06:31:02.082Z,15.57
2018-08-25T06:33:31.022Z,15.49
2018-08-25T06:35:59.974Z,15.61
2018-08-25T06:38:28.898Z,15.67
2018-08-25T06:40:57.877Z,15.69
2018-08-25T06:43:26.800Z,15.66
2018-08-25T06:46:00.994Z,15.65
2018-08-25T06:48:29.924Z,15.65
2018-08-25T06:50:58.800Z,15.77
2018-08-25T06:53:27.787Z,15.79
2018-08-25T06:55:56.701Z,15.77
2018-08-25T06:58:25.568Z,15.62
2018-08-25T07:00:54.714Z,15.83
2018-08-25T07:03:23.633Z,15.92
2018-08-25T07:05:52.626Z,15.92
2018-08-25T07:08:21.591Z,15.92
2018-08-25T07:10:50.665Z,15.93
2018-08-25T07:13:19.560Z,16.01
2018-08-25T07:15:48.536Z,16.12
2018-08-25T07:18:17.409Z,16.22
2018-08-25T07:20:47.270Z,16.25
2018-08-25T07:23:16.207Z,16.38
2018-08-25T07:25:45.207Z,16.51
2018-08-25T07:28:14.122Z,16.60
2018-08-25T07:30:43.048Z,16.55
2018-08-25T07:33:11.895Z,16.50
2018-08-25T07:35:40.859Z,16.56
2018-08-25T07:38:09.856Z,16.63
2018-08-25T07:40:38.671Z,16.64
2018-08-25T07:43:07.613Z,16.71
2018-08-25T07:45:36.515Z,16.80
2018-08-25T07:48:05.455Z,16.80
2018-08-25T07:50:34.531Z,16.74
2018-08-25T07:53:04.366Z,16.70
2018-08-25T07:55:33.272Z,16.71
2018-08-25T07:58:02.242Z,16.72
2018-08-25T08:00:31.145Z,16.69
2018-08-25T08:03:00.041Z,16.77
2018-08-25T08:05:29.072Z,16.74
2018-08-25T08:07:57.892Z,16.68
2018-08-25T08:10:26.785Z,16.46
2018-08-25T08:12:55.763Z,16.52
2018-08-25T08:15:24.659Z,16.67
2018-08-25T08:17:53.540Z,16.73
2018-08-25T08:20:22.499Z,16.72
2018-08-25T08:22:51.376Z,16.43
2018-08-25T08:25:20.259Z,16.14
2018-08-25T08:27:49.285Z,16.00
2018-08-25T08:30:18.165Z,15.98
2018-08-25T08:32:47.064Z,15.83
2018-08-25T08:35:16.008Z,15.67
2018-08-25T08:37:44.887Z,15.87
2018-08-25T08:40:13.760Z,15.78
2018-08-25T08:42:42.728Z,15.42
2018-08-25T08:45:11.600Z,15.61
2018-08-25T08:47:40.531Z,15.72
2018-08-25T08:50:10.521Z,15.73
2018-08-25T08:52:39.881Z,15.56
2018-08-25T08:55:09.005Z,15.86
2018-08-25T08:57:38.550Z,15.68
2018-08-25T09:00:07.766Z,15.57
2018-08-25T09:02:36.740Z,15.79
2018-08-25T09:05:06.037Z,15.65
2018-08-25T09:07:34.958Z,15.68
2018-08-25T09:10:03.902Z,15.83
2018-08-25T09:12:32.919Z,15.91
2018-08-25T09:15:01.839Z,15.91
2018-08-25T09:17:30.714Z,15.81
2018-08-25T09:19:59.675Z,15.94
2018-08-25T09:22:28.558Z,15.90
2018-08-25T09:24:57.433Z,15.89
2018-08-25T09:27:26.470Z,15.88
2018-08-25T09:29:55.354Z,15.91
2018-08-25T09:32:24.237Z,15.88
2018-08-25T09:34:53.153Z,16.10
2018-08-25T09:37:22.060Z,16.10
2018-08-25T09:39:50.935Z,16.26
2018-08-25T09:42:19.834Z,16.23
2018-08-25T09:44:48.760Z,16.34
2018-08-25T09:47:17.665Z,16.44
2018-08-25T09:49:46.625Z,16.24
2018-08-25T09:52:15.500Z,16.31
2018-08-25T09:54:44.380Z,16.24
2018-08-25T09:57:13.324Z,16.06
2018-08-25T09:59:46.895Z,16.32
2018-08-25T10:02:15.859Z,16.20
2018-08-25T10:04:44.748Z,16.28
2018-08-25T10:07:13.634Z,16.20
2018-08-25T10:09:42.597Z,16.51
2018-08-25T10:12:11.471Z,16.66
2018-08-25T10:14:40.365Z,16.77
2018-08-25T10:17:09.331Z,16.77
2018-08-25T10:19:38.243Z,17.04
2018-08-25T10:22:07.143Z,16.95
2018-08-25T10:24:36.102Z,17.00
2018-08-25T10:27:05.021Z,16.88
2018-08-25T10:29:33.903Z,16.86
2018-08-25T10:32:03.057Z,16.63
2018-08-25T10:34:31.941Z,16.74
2018-08-25T10:37:00.843Z,16.81
2018-08-25T10:39:29.786Z,17.15
2018-08-25T10:41:58.681Z,17.38
2018-08-25T10:44:27.542Z,17.18
2018-08-25T10:46:56.435Z,17.13
2018-08-25T10:49:25.340Z,16.96
2018-08-25T10:51:54.222Z,17.04
2018-08-25T10:54:23.687Z,17.04
2018-08-25T10:56:52.563Z,16.76
2018-08-25T10:59:21.462Z,16.72
2018-08-25T11:01:50.416Z,16.66
2018-08-25T11:04:19.310Z,16.46
2018-08-25T11:06:48.177Z,16.23
2018-08-25T11:09:17.087Z,16.12
2018-08-25T11:14:42.711Z,16.12
2018-08-25T11:17:11.600Z,16.48
2018-08-25T11:19:40.496Z,16.53
2018-08-25T11:22:09.483Z,16.30
2018-08-25T11:24:38.468Z,16.63
2018-08-25T11:27:07.422Z,16.52
2018-08-25T11:29:36.378Z,16.53
2018-08-25T11:32:05.358Z,16.16
2018-08-25T11:34:34.273Z,16.38
2018-08-25T11:37:03.185Z,15.74
2018-08-25T11:39:32.187Z,15.71
2018-08-25T11:42:01.085Z,15.93
2018-08-25T11:44:30.068Z,15.58
2018-08-25T11:46:59.053Z,15.61
2018-08-25T11:49:28.962Z,15.72
2018-08-25T11:51:57.952Z,15.69
2018-08-25T11:54:26.861Z,15.94
2018-08-25T11:56:55.788Z,16.20
2018-08-25T11:59:24.775Z,16.20
2018-08-25T12:01:54.205Z,16.50
2018-08-25T12:04:23.104Z,16.21
2018-08-25T12:06:52.073Z,16.66
2018-08-25T12:09:20.985Z,16.26
2018-08-25T12:11:49.881Z,16.62
2018-08-25T12:14:18.846Z,16.55
2018-08-25T12:16:47.774Z,16.69
2018-08-25T12:19:16.776Z,16.47
2018-08-25T12:21:45.727Z,16.48
2018-08-25T12:24:14.673Z,16.78
2018-08-25T12:26:43.588Z,16.67
2018-08-25T12:29:12.517Z,16.42
2018-08-25T12:31:41.426Z,16.34
2018-08-25T12:34:10.384Z,16.20
2018-08-25T12:36:39.381Z,16.51
2018-08-25T12:39:09.746Z,15.92
2018-08-25T12:41:38.652Z,15.89
2018-08-25T12:44:07.730Z,16.08
2018-08-25T12:46:37.022Z,16.18
2018-08-25T12:49:05.936Z,16.41
2018-08-25T12:51:34.917Z,16.43
2018-08-25T12:54:03.824Z,16.40
2018-08-25T12:56:32.820Z,16.57
2018-08-25T12:59:01.803Z,16.62
2018-08-25T13:01:30.695Z,16.85
2018-08-25T13:03:59.576Z,16.90
2018-08-25T13:06:28.536Z,16.98
2018-08-25T13:08:57.468Z,16.58
2018-08-25T13:11:26.348Z,16.53
2018-08-25T13:13:55.253Z,16.36
2018-08-25T13:16:24.236Z,16.18
2018-08-25T13:18:53.119Z,16.46
2018-08-25T13:21:22.437Z,16.46
2018-08-25T13:23:51.310Z,16.32
2018-08-25T13:26:20.205Z,16.36
2018-08-25T13:28:49.166Z,16.45
2018-08-25T13:31:18.139Z,16.36
2018-08-25T13:33:47.004Z,16.72
2018-08-25T13:36:15.962Z,16.47
2018-08-25T13:38:44.881Z,16.53
2018-08-25T13:41:13.794Z,16.37
2018-08-25T13:43:42.731Z,16.42
2018-08-25T13:46:11.582Z,16.08
2018-08-25T13:48:40.549Z,16.16
2018-08-25T13:51:09.561Z,16.11
2018-08-25T13:53:38.409Z,16.03
2018-08-25T13:56:07.309Z,15.72
2018-08-25T13:58:36.309Z,16.12
2018-08-25T14:01:05.176Z,15.95
2018-08-25T14:03:34.058Z,16.23
2018-08-25T14:06:03.015Z,16.16
2018-08-25T14:08:31.901Z,16.44
2018-08-25T14:11:00.772Z,16.63
2018-08-25T14:13:29.732Z,16.59
2018-08-25T14:15:58.641Z,16.70
2018-08-25T14:18:27.501Z,16.63
2018-08-25T14:20:56.431Z,16.75
2018-08-25T14:23:25.308Z,16.78
2018-08-25T14:25:54.207Z,16.77
2018-08-25T14:28:23.141Z,16.65
2018-08-25T14:30:52.012Z,16.59
2018-08-25T14:33:20.882Z,16.62
2018-08-25T14:35:49.895Z,16.67
2018-08-25T14:38:18.845Z,16.70
2018-08-25T14:40:47.744Z,16.62
2018-08-25T14:43:16.663Z,16.80
2018-08-25T14:45:45.578Z,17.18
2018-08-25T14:48:15.612Z,17.09
2018-08-25T14:50:44.570Z,16.89
2018-08-25T14:53:13.997Z,16.97
2018-08-25T14:55:43.525Z,17.09
2018-08-25T14:58:13.317Z,16.93
2018-08-25T15:00:42.195Z,17.00
2018-08-25T15:03:11.094Z,16.78
2018-08-25T15:05:40.045Z,17.04
2018-08-25T15:08:08.939Z,16.95
2018-08-25T15:10:37.829Z,16.70
2018-08-25T15:13:06.752Z,16.96
2018-08-25T15:15:35.633Z,17.09
2018-08-25T15:18:04.520Z,17.12
2018-08-25T15:20:33.469Z,17.33
2018-08-25T15:23:02.333Z,17.13
2018-08-25T15:25:31.226Z,16.96
2018-08-25T15:28:00.168Z,16.86
2018-08-25T15:30:29.039Z,16.82
2018-08-25T15:32:57.919Z,16.96
2018-08-25T15:35:26.879Z,16.54
2018-08-25T15:37:56.107Z,16.90
2018-08-25T15:40:25.061Z,16.93
2018-08-25T15:42:54.030Z,16.90
2018-08-25T15:45:22.937Z,17.02
2018-08-25T15:47:51.808Z,16.85
2018-08-25T15:50:20.784Z,16.82
2018-08-25T15:52:49.650Z,16.78
2018-08-25T15:55:18.577Z,16.74
2018-08-25T15:57:47.537Z,16.72
2018-08-25T16:00:16.388Z,16.64
2018-08-25T16:02:45.261Z,16.75
2018-08-25T16:05:14.212Z,17.45
2018-08-25T16:07:43.072Z,17.20
2018-08-25T16:10:11.932Z,17.34
2018-08-25T16:12:40.870Z,17.41
2018-08-25T16:15:09.764Z,17.64
2018-08-25T16:17:38.629Z,17.35
2018-08-25T16:20:07.667Z,17.30
2018-08-25T16:22:36.499Z,17.45
2018-08-25T16:25:05.387Z,17.90
2018-08-25T16:27:34.331Z,17.81
2018-08-25T16:30:03.241Z,17.61
2018-08-25T16:32:32.114Z,17.53
2018-08-25T16:35:01.119Z,17.56
2018-08-25T16:37:30.017Z,17.57
2018-08-25T16:39:58.968Z,17.60
2018-08-25T16:42:28.016Z,17.53
2018-08-25T16:44:56.903Z,17.44
2018-08-25T16:47:25.769Z,17.31
2018-08-25T16:49:54.784Z,17.52
2018-08-25T16:52:23.684Z,17.14
2018-08-25T16:54:53.004Z,16.66
2018-08-25T16:57:22.038Z,16.97
2018-08-25T16:59:51.080Z,16.93
2018-08-25T17:02:20.061Z,17.02
2018-08-25T17:04:49.045Z,17.05
2018-08-25T17:07:17.956Z,17.10
2018-08-25T17:09:46.922Z,17.00
2018-08-25T17:12:15.834Z,17.09
2018-08-25T17:14:44.768Z,17.05
2018-08-25T17:17:13.756Z,16.95
2018-08-25T17:19:42.656Z,16.81
2018-08-25T17:22:11.707Z,16.70
2018-08-25T17:24:40.659Z,16.79
2018-08-25T17:27:09.506Z,16.72
2018-08-25T17:29:38.392Z,16.74
2018-08-25T17:32:07.411Z,16.83
2018-08-25T17:34:36.288Z,16.76
2018-08-25T17:37:05.194Z,16.76
2018-08-25T17:39:34.144Z,16.83
2018-08-25T17:42:03.030Z,16.62
2018-08-25T17:44:32.035Z,16.94
2018-08-25T17:47:01.040Z,16.83
2018-08-25T17:49:29.918Z,16.73
2018-08-25T17:51:58.863Z,16.93
2018-08-25T17:54:27.822Z,16.87
2018-08-25T17:56:56.756Z,16.91
2018-08-25T17:59:25.633Z,16.43
2018-08-25T18:01:54.613Z,16.55
2018-08-25T18:04:23.541Z,16.71
2018-08-25T18:06:52.440Z,16.69
2018-08-25T18:09:21.449Z,16.37
2018-08-25T18:11:50.364Z,16.41
2018-08-25T18:14:19.274Z,16.29
2018-08-25T18:16:48.179Z,16.32
2018-08-25T18:19:17.143Z,16.43
2018-08-25T18:21:46.039Z,16.29
2018-08-25T18:24:15.472Z,16.37
2018-08-25T18:26:44.357Z,16.32
2018-08-25T18:29:13.253Z,16.07
2018-08-25T18:31:42.290Z,16.22
2018-08-25T18:34:11.256Z,16.20
2018-08-25T18:36:40.238Z,16.21
2018-08-25T18:39:11.233Z,16.00
2018-08-25T18:41:40.158Z,16.13
2018-08-25T18:44:09.100Z,15.84
2018-08-25T18:46:38.249Z,15.97
2018-08-25T18:49:07.181Z,16.01
2018-08-25T18:51:36.090Z,15.83
2018-08-25T18:54:05.112Z,16.19
2018-08-25T18:56:34.069Z,15.91
2018-08-25T18:59:02.989Z,15.83
2018-08-25T19:01:31.953Z,16.05
2018-08-25T19:04:01.601Z,15.87
2018-08-25T19:06:30.490Z,15.96
2018-08-25T19:08:59.567Z,15.80
2018-08-25T19:11:28.457Z,15.87
2018-08-25T19:13:57.417Z,15.76
2018-08-25T19:16:28.472Z,15.44
2018-08-25T19:18:57.407Z,15.58
2018-08-25T19:21:26.372Z,15.64
2018-08-25T19:23:55.570Z,15.53
2018-08-25T19:26:24.507Z,15.53
2018-08-25T19:28:53.597Z,15.53
2018-08-25T19:31:22.519Z,15.44
2018-08-25T19:33:51.565Z,15.19
2018-08-25T19:36:20.594Z,15.56
2018-08-25T19:38:49.945Z,15.44
2018-08-25T19:41:19.933Z,15.53
2018-08-25T19:43:48.926Z,15.41
2018-08-25T19:46:17.831Z,15.02
2018-08-25T19:48:46.921Z,15.02
2018-08-25T19:51:15.967Z,15.11
2018-08-25T19:53:44.882Z,15.21
2018-08-25T19:56:13.816Z,15.37
2018-08-25T19:58:42.855Z,15.08
2018-08-25T20:01:11.787Z,15.06
2018-08-25T20:03:40.659Z,14.99
2018-08-25T20:06:09.879Z,15.03
2018-08-25T20:08:38.811Z,15.07
2018-08-25T20:11:07.717Z,15.24
2018-08-25T20:13:36.775Z,14.97
2018-08-25T20:16:05.790Z,15.13
2018-08-25T20:18:34.707Z,14.86
2018-08-25T20:21:03.847Z,15.11
2018-08-25T20:23:32.659Z,14.65
2018-08-25T20:26:01.548Z,14.77
2018-08-25T20:28:30.498Z,14.65
2018-08-25T20:31:00.387Z,14.49
2018-08-25T20:33:29.282Z,14.78
2018-08-25T20:35:58.497Z,14.91
2018-08-25T20:38:27.409Z,14.60
2018-08-25T20:40:56.387Z,14.76
2018-08-25T20:43:25.392Z,14.42
2018-08-25T20:45:55.015Z,14.57
2018-08-25T20:48:23.882Z,14.47
2018-08-25T20:50:52.973Z,14.55
2018-08-25T20:53:26.927Z,14.86
2018-08-25T20:55:55.857Z,14.73
2018-08-25T20:58:24.742Z,14.41
2018-08-25T21:00:53.670Z,14.58
2018-08-25T21:03:23.619Z,14.61
2018-08-25T21:05:53.104Z,14.21
2018-08-25T21:08:22.824Z,14.45
2018-08-25T21:10:51.907Z,14.20
2018-08-25T21:13:20.895Z,14.04
2018-08-25T21:15:49.872Z,14.22
2018-08-25T21:18:18.752Z,14.22
2018-08-25T21:20:47.748Z,14.31
2018-08-25T21:23:16.651Z,14.50
2018-08-25T21:25:45.579Z,14.34
2018-08-25T21:28:14.511Z,14.36
2018-08-25T21:30:44.408Z,14.52
2018-08-25T21:33:13.377Z,14.25
2018-08-25T21:35:42.310Z,14.34
2018-08-25T21:38:11.194Z,14.29
2018-08-25T21:40:40.398Z,14.31
2018-08-25T21:43:09.301Z,14.21
2018-08-25T21:45:38.184Z,14.04
2018-08-25T21:48:07.239Z,14.22
2018-08-25T21:50:36.178Z,14.14
2018-08-25T21:53:05.210Z,13.88
2018-08-25T21:55:34.181Z,14.04
2018-08-25T21:58:03.129Z,13.94
2018-08-25T22:00:32.029Z,14.21
2018-08-25T22:03:01.004Z,13.88
2018-08-25T22:05:29.984Z,13.80
2018-08-25T22:07:58.893Z,14.19
2018-08-25T22:10:29.985Z,14.03
2018-08-25T22:12:58.868Z,13.98
2018-08-25T22:15:27.751Z,14.03
2018-08-25T22:17:56.686Z,13.95
2018-08-25T22:20:25.553Z,13.53
2018-08-25T22:22:54.429Z,13.96
2018-08-25T22:25:23.395Z,13.82
2018-08-25T22:27:52.285Z,13.90
2018-08-25T22:30:21.407Z,13.71
2018-08-25T22:32:50.373Z,13.72
2018-08-25T22:35:19.250Z,13.63
2018-08-25T22:37:48.217Z,13.33
2018-08-25T22:40:17.157Z,13.67
2018-08-25T22:42:46.078Z,13.43
2018-08-25T22:45:15.046Z,13.61
2018-08-25T22:47:44.036Z,13.53
2018-08-25T22:50:13.017Z,13.51
2018-08-25T22:52:47.425Z,13.92
2018-08-25T22:55:16.393Z,13.59
2018-08-25T22:57:45.266Z,13.32
2018-08-25T23:00:14.257Z,13.32
2018-08-25T23:02:43.136Z,13.31
2018-08-25T23:05:12.038Z,13.65
2018-08-25T23:07:41.079Z,13.35
2018-08-25T23:10:09.925Z,13.47
2018-08-25T23:12:38.827Z,13.26
2018-08-25T23:15:07.821Z,13.47
2018-08-25T23:17:36.718Z,13.31
2018-08-25T23:20:05.614Z,13.30
2018-08-25T23:22:34.554Z,13.45
2018-08-25T23:25:03.443Z,13.45
2018-08-25T23:27:32.366Z,13.37
2018-08-25T23:30:01.308Z,13.27
2018-08-25T23:32:30.226Z,13.39
2018-08-25T23:34:59.118Z,13.60
2018-08-25T23:37:28.050Z,13.31
2018-08-25T23:39:56.945Z,13.50
2018-08-25T23:42:25.840Z,13.45
2018-08-25T23:44:54.799Z,13.21
2018-08-25T23:47:23.660Z,13.37
2018-08-25T23:49:52.560Z,13.42
2018-08-25T23:52:21.520Z,13.39
2018-08-25T23:54:50.419Z,13.49
2018-08-25T23:57:19.358Z,13.22
2018-08-25T23:59:48.315Z,13.35
